Time;durP1;ratioP1;P1;durP2;ratioP2;P2;SDS_P1;SDS_P2;PMS_P1;PMS_P2;Temp;Humidity;BMP_temperature;BMP_pressure;BME280_temperature;BME280_humidity;BME280_pressure;Samples;Min_cycle;Max_cycle;Signal;HPM_P1;HPM_P2
2021/11/14 00:02:25;;;;;;;2.22;1.70;;;17.60;69.20;;;;;;10373853;28;20120;-59
2021/11/14 00:07:26;;;;;;;1.95;1.30;;;17.50;69.30;;;;;;10369603;28;20387;-59
2021/11/14 00:12:27;;;;;;;2.92;1.50;;;17.50;69.20;;;;;;10345441;28;20547;-59
2021/11/14 00:17:28;;;;;;;2.22;1.45;;;17.70;68.90;;;;;;10334693;28;20095;-59
2021/11/14 00:22:28;;;;;;;2.08;1.58;;;17.70;68.70;;;;;;10339241;28;20049;-59
2021/11/14 00:27:29;;;;;;;1.85;1.33;;;17.70;68.60;;;;;;10341347;28;20226;-58
2021/11/14 00:32:30;;;;;;;2.42;1.67;;;17.80;68.40;;;;;;10333533;28;20073;-59
2021/11/14 00:37:34;;;;;;;2.85;1.48;;;17.80;68.30;;;;;;10372924;28;20061;-59
2021/11/14 00:42:36;;;;;;;3.10;1.90;;;17.70;68.30;;;;;;10372503;28;20116;-60
2021/11/14 00:47:39;;;;;;;2.33;1.38;;;17.70;68.50;;;;;;10357236;28;20070;-59
2021/11/14 00:52:43;;;;;;;3.67;1.90;;;17.70;68.60;;;;;;10334981;28;20038;-59
2021/11/14 00:57:44;;;;;;;2.70;1.80;;;17.70;68.40;;;;;;10331809;28;20030;-60
2021/11/14 01:02:45;;;;;;;2.30;1.45;;;17.70;68.30;;;;;;10331530;28;20031;-59
2021/11/14 01:07:47;;;;;;;2.60;1.80;;;17.70;68.40;;;;;;10330279;28;20058;-59
2021/11/14 01:12:49;;;;;;;3.03;1.50;;;17.70;68.50;;;;;;10352794;28;20034;-59
2021/11/14 01:17:50;;;;;;;2.45;1.90;;;17.70;68.30;;;;;;10330289;28;20038;-59
2021/11/14 01:22:54;;;;;;;2.15;1.50;;;17.80;68.30;;;;;;10348799;28;20068;-59
2021/11/14 01:27:55;;;;;;;2.88;1.98;;;17.70;68.20;;;;;;10379308;28;20034;-59
2021/11/14 01:32:58;;;;;;;1.75;1.52;;;17.70;68.40;;;;;;10379290;28;20041;-58
2021/11/14 01:37:59;;;;;;;2.55;1.77;;;17.70;68.50;;;;;;10378036;28;20026;-59
2021/11/14 01:43:01;;;;;;;2.40;1.70;;;17.80;68.30;;;;;;10377386;28;20033;-59
2021/11/14 01:48:03;;;;;;;2.35;1.77;;;17.70;68.30;;;;;;10378916;28;20057;-60
2021/11/14 01:53:05;;;;;;;2.58;2.00;;;17.70;68.40;;;;;;10378577;28;20034;-59
2021/11/14 01:58:05;;;;;;;3.05;1.70;;;17.70;68.50;;;;;;10343289;28;20042;-59
2021/11/14 02:03:07;;;;;;;2.42;1.55;;;17.70;68.30;;;;;;10344691;28;20033;-60
2021/11/14 02:08:09;;;;;;;2.58;1.77;;;17.70;68.20;;;;;;10369308;28;20042;-59
2021/11/14 02:13:11;;;;;;;2.25;1.70;;;17.70;68.30;;;;;;10356530;28;20027;-58
2021/11/14 02:18:16;;;;;;;2.10;1.65;;;17.70;68.50;;;;;;10336407;28;20367;-59
2021/11/14 02:23:20;;;;;;;2.03;1.52;;;17.70;68.40;;;;;;10337495;28;20125;-59
2021/11/14 02:28:23;;;;;;;2.22;1.63;;;17.70;68.20;;;;;;10340056;28;20039;-59
2021/11/14 02:33:28;;;;;;;2.17;1.60;;;17.70;68.20;;;;;;10363768;28;20033;-58
2021/11/14 02:38:30;;;;;;;2.10;1.42;;;17.70;68.30;;;;;;10373478;28;20041;-59
2021/11/14 02:43:31;;;;;;;2.70;1.83;;;17.70;68.40;;;;;;10377034;28;20045;-59
2021/11/14 02:48:32;;;;;;;2.33;1.67;;;17.70;68.20;;;;;;10375328;28;20077;-59
2021/11/14 02:53:34;;;;;;;2.10;1.73;;;17.70;68.10;;;;;;10376191;28;20052;-58
2021/11/14 02:58:36;;;;;;;2.38;1.70;;;17.70;68.10;;;;;;10376413;28;20034;-59
2021/11/14 03:03:38;;;;;;;2.10;1.60;;;17.70;68.30;;;;;;10374542;28;20029;-59
2021/11/14 03:08:39;;;;;;;2.42;1.58;;;17.70;68.20;;;;;;10362818;28;20135;-58
2021/11/14 03:13:40;;;;;;;2.13;1.52;;;17.70;68.10;;;;;;10351863;28;20066;-59
2021/11/14 03:18:40;;;;;;;2.22;1.50;;;17.70;68.20;;;;;;10337961;28;20382;-59
2021/11/14 03:23:41;;;;;;;2.30;1.70;;;17.70;68.30;;;;;;10375332;28;20087;-59
2021/11/14 03:28:43;;;;;;;3.05;1.90;;;17.70;68.30;;;;;;10373810;28;20018;-58
2021/11/14 03:33:45;;;;;;;2.00;1.60;;;17.70;68.10;;;;;;10374872;28;20034;-59
2021/11/14 03:38:58;;;;;;;2.45;1.88;;;17.70;68.10;;;;;;10374566;28;20091;-59
2021/11/14 03:43:59;;;;;;;1.95;1.58;;;17.70;68.20;;;;;;10373123;28;20037;-59
2021/11/14 03:49:01;;;;;;;2.00;1.80;;;17.60;68.30;;;;;;10344781;28;20054;-59
2021/11/14 03:54:02;;;;;;;2.63;1.75;;;17.70;68.10;;;;;;10359436;28;20037;-59
2021/11/14 03:59:03;;;;;;;2.53;1.90;;;17.70;68.10;;;;;;10332525;28;20037;-59
2021/11/14 04:04:04;;;;;;;2.72;1.80;;;17.70;67.90;;;;;;10365475;28;20034;-59
2021/11/14 04:09:05;;;;;;;1.98;1.48;;;17.80;67.80;;;;;;10371980;28;20412;-59
2021/11/14 04:14:06;;;;;;;3.22;2.17;;;17.80;67.80;;;;;;10338935;28;20610;-58
2021/11/14 04:19:06;;;;;;;4.80;1.83;;;17.70;67.90;;;;;;10332567;28;20475;-59
2021/11/14 04:24:07;;;;;;;3.38;2.40;;;17.70;68.10;;;;;;10315492;28;20030;-58
2021/11/14 04:29:08;;;;;;;2.03;1.40;;;17.70;67.90;;;;;;10332483;28;20026;-59
2021/11/14 04:34:09;;;;;;;2.72;1.95;;;17.80;67.90;;;;;;10346974;28;20164;-59
2021/11/14 04:39:09;;;;;;;2.45;1.77;;;17.70;67.90;;;;;;10372610;28;20032;-59
2021/11/14 04:44:10;;;;;;;2.80;1.90;;;17.70;68.60;;;;;;10372819;28;20633;-58
2021/11/14 04:49:11;;;;;;;2.50;1.70;;;17.70;68.10;;;;;;10372136;28;20133;-59
2021/11/14 04:54:11;;;;;;;2.17;1.67;;;17.80;68.00;;;;;;10372511;28;20041;-58
2021/11/14 04:59:12;;;;;;;2.45;1.63;;;17.70;67.90;;;;;;10375749;28;20033;-59
2021/11/14 05:04:13;;;;;;;2.60;1.83;;;17.70;68.10;;;;;;10384353;28;20037;-59
2021/11/14 05:09:14;;;;;;;2.65;1.80;;;17.60;68.10;;;;;;10385785;28;20026;-59
2021/11/14 05:14:14;;;;;;;2.35;1.67;;;17.70;68.00;;;;;;10349584;28;20476;-59
2021/11/14 05:19:15;;;;;;;2.33;1.85;;;17.70;67.90;;;;;;10348942;28;20033;-59
2021/11/14 05:24:16;;;;;;;3.47;2.08;;;17.70;67.90;;;;;;10383970;28;20620;-59
2021/11/14 05:29:17;;;;;;;2.75;1.88;;;17.70;67.90;;;;;;10383478;28;20108;-58
2021/11/14 05:34:18;;;;;;;2.40;1.67;;;17.70;68.00;;;;;;10385008;28;20026;-59
2021/11/14 05:39:18;;;;;;;2.80;1.95;;;17.70;68.10;;;;;;10384049;28;20405;-59
2021/11/14 05:44:19;;;;;;;2.30;1.30;;;17.80;68.00;;;;;;10384921;28;20037;-59
2021/11/14 05:49:20;;;;;;;2.80;1.80;;;17.90;67.50;;;;;;10357882;28;20092;-59
2021/11/14 05:54:21;;;;;;;2.53;1.83;;;18.10;66.80;;;;;;10342789;28;20034;-59
2021/11/14 05:59:37;;;;;;;2.33;1.55;;;18.30;66.30;;;;;;10354887;28;20478;-60
2021/11/14 06:09:39;;;;;;;2.45;1.85;;;18.40;65.90;;;;;;10382604;28;20108;-60
2021/11/14 06:14:40;;;;;;;4.82;2.05;;;18.40;65.80;;;;;;10347052;28;20037;-59
2021/11/14 06:19:40;;;;;;;5.38;1.85;;;18.50;67.10;;;;;;10336884;28;20025;-62
2021/11/14 06:24:41;;;;;;;6.65;2.38;;;18.40;67.60;;;;;;10336052;28;20486;-60
2021/11/14 06:29:42;;;;;;;5.72;1.85;;;18.60;67.40;;;;;;10372309;28;20125;-62
2021/11/14 06:34:43;;;;;;;9.68;2.65;;;18.60;67.10;;;;;;10358457;28;20124;-61
2021/11/14 06:39:44;;;;;;;7.60;2.78;;;18.70;66.90;;;;;;10336581;28;20034;-60
2021/11/14 06:44:44;;;;;;;6.13;2.53;;;18.80;66.90;;;;;;10354932;28;20096;-59
2021/11/14 06:49:47;;;;;;;6.60;2.38;;;18.70;66.90;;;;;;10365023;28;20498;-59
2021/11/14 06:54:48;;;;;;;10.68;2.67;;;18.80;66.90;;;;;;10374684;28;20169;-58
2021/11/14 06:59:50;;;;;;;11.13;3.05;;;18.80;66.70;;;;;;10375543;28;20037;-57
2021/11/14 07:04:51;;;;;;;13.57;3.28;;;18.70;67.30;;;;;;10372954;28;20038;-57
2021/11/14 07:09:52;;;;;;;12.68;3.00;;;18.70;67.50;;;;;;10371576;28;20518;-59
2021/11/14 07:14:53;;;;;;;12.48;2.92;;;18.70;67.70;;;;;;10343408;28;20031;-59
2021/11/14 07:19:58;;;;;;;12.13;3.00;;;18.80;67.70;;;;;;10365607;28;20029;-58
2021/11/14 07:24:59;;;;;;;9.52;3.42;;;18.70;67.80;;;;;;10372702;28;20038;-59
2021/11/14 07:29:59;;;;;;;14.93;4.28;;;18.60;67.80;;;;;;10340261;28;20620;-62
2021/11/14 07:35:00;;;;;;;14.27;3.30;;;18.50;69.20;;;;;;10365209;28;20022;-59
2021/11/14 07:40:02;;;;;;;20.85;4.90;;;18.50;69.10;;;;;;10342332;28;20026;-57
2021/11/14 07:45:07;;;;;;;8.68;4.50;;;18.50;68.30;;;;;;10333807;28;20561;-57
2021/11/14 07:50:10;;;;;;;14.60;5.70;;;18.40;67.90;;;;;;10345622;28;20026;-58
2021/11/14 07:55:11;;;;;;;21.98;5.50;;;18.40;67.80;;;;;;10352357;28;20471;-57
2021/11/14 08:00:17;;;;;;;13.73;5.10;;;18.30;68.60;;;;;;10357847;28;20045;-57
2021/11/14 08:05:19;;;;;;;16.35;5.55;;;18.30;68.10;;;;;;10371982;28;20025;-57
2021/11/14 08:10:26;;;;;;;14.35;5.65;;;18.20;68.10;;;;;;10366901;28;20030;-57
2021/11/14 08:15:28;;;;;;;9.52;5.35;;;18.20;68.30;;;;;;10355952;28;20030;-58
2021/11/14 08:20:29;;;;;;;10.07;5.03;;;18.20;68.10;;;;;;10340185;28;20033;-57
2021/11/14 08:25:30;;;;;;;9.38;4.90;;;18.30;67.60;;;;;;10338268;28;20036;-57
2021/11/14 08:30:31;;;;;;;13.73;5.47;;;18.30;68.10;;;;;;10333782;28;20465;-58
2021/11/14 08:35:32;;;;;;;9.65;4.93;;;18.30;67.40;;;;;;10352254;28;20073;-57
2021/11/14 08:40:36;;;;;;;12.23;5.18;;;18.40;67.00;;;;;;10372372;28;20065;-57
2021/11/14 08:45:37;;;;;;;8.85;4.40;;;18.40;66.80;;;;;;10372490;28;20486;-57
2021/11/14 08:50:38;;;;;;;9.73;4.57;;;18.40;66.90;;;;;;10370954;28;20038;-57
2021/11/14 08:55:38;;;;;;;10.98;5.03;;;18.40;67.00;;;;;;10372059;28;20056;-56
2021/11/14 09:00:39;;;;;;;8.88;4.40;;;18.40;66.80;;;;;;10371837;28;20029;-57
2021/11/14 09:05:40;;;;;;;10.48;5.15;;;18.40;66.80;;;;;;10371920;28;20047;-57
2021/11/14 09:10:44;;;;;;;8.40;4.70;;;18.30;66.90;;;;;;10363649;28;20378;-57
2021/11/14 09:15:45;;;;;;;8.82;4.30;;;18.30;66.90;;;;;;10331190;28;20154;-57
2021/11/14 09:20:47;;;;;;;7.85;4.55;;;18.40;66.60;;;;;;10367594;28;20025;-57
2021/11/14 09:25:48;;;;;;;7.88;4.30;;;18.40;66.40;;;;;;10360425;28;20041;-56
2021/11/14 09:30:51;;;;;;;11.82;5.70;;;18.40;66.60;;;;;;10360264;28;20161;-58
2021/11/14 09:35:54;;;;;;;11.00;4.35;;;18.30;66.70;;;;;;10351063;28;20125;-58
2021/11/14 09:40:57;;;;;;;8.93;4.20;;;18.40;66.80;;;;;;10350624;28;20041;-57
2021/11/14 09:45:59;;;;;;;13.98;5.38;;;18.50;67.20;;;;;;10343474;28;20061;-57
2021/11/14 09:51:01;;;;;;;13.60;5.18;;;18.50;67.40;;;;;;10367408;28;20041;-55
2021/11/14 09:56:04;;;;;;;14.35;5.82;;;18.40;67.40;;;;;;10372209;28;20033;-58
2021/11/14 10:01:06;;;;;;;14.27;5.70;;;18.30;67.30;;;;;;10376582;28;20030;-57
2021/11/14 10:06:07;;;;;;;16.67;5.03;;;18.30;67.60;;;;;;10376758;28;20030;-57
2021/11/14 10:11:08;;;;;;;14.07;4.97;;;18.30;67.70;;;;;;10366024;28;20473;-58
2021/11/14 10:16:16;;;;;;;13.30;5.43;;;18.20;67.80;;;;;;10337042;28;20383;-57
2021/11/14 10:21:18;;;;;;;15.77;5.65;;;18.10;67.80;;;;;;10358557;28;20041;-58
2021/11/14 10:26:19;;;;;;;17.42;6.40;;;18.10;68.10;;;;;;10359001;28;20376;-58
2021/11/14 10:31:24;;;;;;;16.55;4.32;;;18.20;68.30;;;;;;10375933;28;20057;-61
2021/11/14 10:36:27;;;;;;;22.83;5.50;;;18.30;68.40;;;;;;10372098;28;20359;-59
2021/11/14 10:41:28;;;;;;;12.93;5.28;;;18.40;67.90;;;;;;10359270;28;20034;-58
2021/11/14 10:46:34;;;;;;;21.55;5.63;;;18.60;67.90;;;;;;10356487;28;20046;-59
2021/11/14 10:51:37;;;;;;;19.75;5.82;;;18.60;67.30;;;;;;10385695;28;20478;-59
2021/11/14 10:56:39;;;;;;;17.67;4.55;;;18.60;67.80;;;;;;10362958;28;20129;-58
2021/11/14 11:01:40;;;;;;;14.43;5.47;;;18.70;69.10;;;;;;10335663;28;20509;-58
2021/11/14 11:06:53;;;;;;;17.05;5.35;;;18.70;68.50;;;;;;10344086;28;20045;-57
2021/11/14 11:11:54;;;;;;;14.00;4.75;;;18.80;68.60;;;;;;10349344;28;20390;-59
2021/11/14 11:16:59;;;;;;;11.85;4.78;;;18.70;68.50;;;;;;10369695;28;20025;-58
2021/11/14 11:22:04;;;;;;;11.40;4.80;;;18.60;69.30;;;;;;10375326;28;20033;-56
2021/11/14 11:27:08;;;;;;;17.67;4.65;;;18.60;69.50;;;;;;10365875;28;20022;-57
2021/11/14 11:32:11;;;;;;;16.25;4.75;;;18.50;70.10;;;;;;10349347;28;20042;-56
2021/11/14 11:37:13;;;;;;;15.95;5.43;;;18.40;70.00;;;;;;10361867;28;20026;-59
2021/11/14 11:42:15;;;;;;;23.48;5.88;;;18.30;69.50;;;;;;10369228;28;20340;-58
2021/11/14 11:47:17;;;;;;;15.27;5.90;;;18.10;69.70;;;;;;10335775;28;20128;-58
2021/11/14 11:52:19;;;;;;;13.60;4.57;;;18.10;69.60;;;;;;10330175;28;20022;-57
2021/11/14 11:57:21;;;;;;;12.60;4.65;;;18.10;69.60;;;;;;10328564;28;20026;-58
2021/11/14 12:02:26;;;;;;;14.25;4.25;;;18.00;69.60;;;;;;10328567;28;20105;-58
2021/11/14 12:07:33;;;;;;;12.52;4.22;;;18.00;69.60;;;;;;10330613;28;20109;-57
2021/11/14 12:12:45;;;;;;;10.60;4.10;;;18.10;69.40;;;;;;10349006;28;20034;-58
2021/11/14 12:17:59;;;;;;;9.68;4.68;;;18.20;69.20;;;;;;10333000;28;20129;-58
2021/11/14 12:23:18;;;;;;;9.68;4.30;;;18.20;69.00;;;;;;10333022;28;20030;-58
2021/11/14 12:28:25;;;;;;;9.85;3.78;;;18.20;68.90;;;;;;10359388;28;20022;-58
2021/11/14 12:33:29;;;;;;;8.18;3.83;;;18.20;68.80;;;;;;10371736;28;20033;-58
2021/11/14 12:38:32;;;;;;;5.55;3.30;;;18.20;68.90;;;;;;10373091;28;20022;-57
2021/11/14 12:43:48;;;;;;;7.30;3.90;;;18.20;68.90;;;;;;10372777;28;20490;-57
2021/11/14 12:48:49;;;;;;;6.75;3.95;;;18.30;68.60;;;;;;10371182;28;20442;-57
2021/11/14 12:53:56;;;;;;;8.40;4.25;;;18.30;68.40;;;;;;10354839;28;20130;-57
2021/11/14 12:58:59;;;;;;;7.03;3.28;;;18.20;68.50;;;;;;10372648;28;20462;-58
2021/11/14 13:04:00;;;;;;;6.00;3.65;;;18.30;68.40;;;;;;10371095;28;20042;-61
2021/11/14 13:09:18;;;;;;;4.90;3.10;;;18.40;68.10;;;;;;10372168;28;20056;-61
2021/11/14 13:14:19;;;;;;;7.53;3.65;;;18.40;68.10;;;;;;10334439;28;20071;-61
2021/11/14 13:19:20;;;;;;;7.88;3.95;;;18.30;68.30;;;;;;10331777;28;20154;-60
2021/11/14 13:24:21;;;;;;;7.15;3.22;;;18.20;68.40;;;;;;10352824;28;20026;-61
2021/11/14 13:29:27;;;;;;;7.50;3.20;;;18.20;68.60;;;;;;10339246;28;20562;-61
2021/11/14 13:34:31;;;;;;;4.93;3.17;;;18.20;68.60;;;;;;10349981;28;20431;-60
2021/11/14 13:39:40;;;;;;;4.38;3.20;;;18.30;68.40;;;;;;10379485;28;20049;-61
2021/11/14 13:44:45;;;;;;;;;;;18.30;68.10;;;;;;10378442;28;20036;-61
2021/11/14 13:49:47;;;;;;;5.88;2.95;;;18.30;68.00;;;;;;10377825;28;20408;-60
2021/11/14 13:55:02;;;;;;;4.20;2.88;;;18.30;67.90;;;;;;10377821;28;20113;-60
2021/11/14 14:00:17;;;;;;;5.10;3.20;;;18.30;68.10;;;;;;10378802;28;20028;-60
2021/11/14 14:05:20;;;;;;;5.55;3.17;;;18.30;68.20;;;;;;10378346;28;20034;-61
2021/11/14 14:10:23;;;;;;;3.95;2.88;;;18.20;68.20;;;;;;10356925;28;20022;-60
2021/11/14 14:15:34;;;;;;;5.30;2.95;;;18.30;68.10;;;;;;10364044;28;20379;-60
2021/11/14 14:20:35;;;;;;;7.45;3.47;;;18.40;67.90;;;;;;10377882;28;20057;-61
2021/11/14 14:25:41;;;;;;;4.75;2.55;;;18.50;67.50;;;;;;10376526;28;20058;-59
2021/11/14 14:30:44;;;;;;;5.78;2.90;;;18.50;67.50;;;;;;10375790;28;20493;-60
2021/11/14 14:35:58;;;;;;;7.07;2.67;;;18.40;67.70;;;;;;10376773;28;20493;-61
2021/11/14 14:41:11;;;;;;;4.68;2.60;;;18.40;67.70;;;;;;10377167;28;20029;-61
2021/11/14 14:46:17;;;;;;;3.10;2.25;;;18.50;67.50;;;;;;10375567;28;20046;-61
2021/11/14 14:51:24;;;;;;;4.20;2.70;;;18.50;67.30;;;;;;10373862;28;20038;-61
2021/11/14 14:56:29;;;;;;;6.47;2.75;;;18.50;67.50;;;;;;10336165;28;20034;-61
2021/11/14 15:01:36;;;;;;;4.80;2.70;;;18.40;67.70;;;;;;10335724;28;20023;-61
2021/11/14 15:06:38;;;;;;;4.68;2.53;;;18.30;68.00;;;;;;10334359;28;20045;-60
2021/11/14 15:11:38;;;;;;;5.78;3.20;;;18.20;68.20;;;;;;10350023;28;20032;-60
2021/11/14 15:16:39;;;;;;;3.22;2.33;;;18.30;68.80;;;;;;10338084;28;20368;-60
2021/11/14 15:21:40;;;;;;;4.40;2.38;;;18.30;68.00;;;;;;10333760;28;20492;-61
2021/11/14 15:26:42;;;;;;;3.75;2.33;;;18.30;68.00;;;;;;10333646;28;20367;-61
2021/11/14 15:31:42;;;;;;;3.00;2.35;;;18.30;68.10;;;;;;10349471;28;20030;-61
2021/11/14 15:36:43;;;;;;;4.93;2.42;;;18.30;67.90;;;;;;10375082;28;20026;-61
2021/11/14 15:41:44;;;;;;;3.53;2.45;;;18.40;67.50;;;;;;10374696;28;20025;-61
2021/11/14 15:46:46;;;;;;;3.72;2.28;;;18.40;67.50;;;;;;10374205;28;20129;-61
2021/11/14 15:51:47;;;;;;;4.55;2.45;;;18.40;67.50;;;;;;10374692;28;20053;-61
2021/11/14 15:56:48;;;;;;;3.90;2.40;;;18.50;67.20;;;;;;10339037;28;20030;-61
2021/11/14 16:01:49;;;;;;;3.83;2.63;;;18.50;67.30;;;;;;10333579;28;20061;-61
2021/11/14 16:06:50;;;;;;;3.60;2.60;;;18.40;67.40;;;;;;10333261;28;20109;-61
2021/11/14 16:11:51;;;;;;;4.70;2.90;;;18.30;67.70;;;;;;10349609;28;20109;-61
2021/11/14 16:16:52;;;;;;;3.28;2.40;;;18.30;67.90;;;;;;10333319;28;20034;-61
2021/11/14 16:21:53;;;;;;;3.25;2.05;;;18.30;67.70;;;;;;10333113;28;20049;-61
2021/11/14 16:26:54;;;;;;;3.55;2.10;;;18.40;67.40;;;;;;10331599;28;20045;-61
2021/11/14 16:31:55;;;;;;;3.50;2.30;;;18.50;67.10;;;;;;10332630;28;20053;-61
2021/11/14 16:36:56;;;;;;;4.30;2.45;;;18.50;67.10;;;;;;10364421;28;20029;-61
2021/11/14 16:41:59;;;;;;;3.85;2.70;;;18.40;67.40;;;;;;10372006;28;20026;-61
2021/11/14 16:47:00;;;;;;;3.25;2.20;;;18.40;67.50;;;;;;10372434;28;20509;-61
2021/11/14 16:52:01;;;;;;;4.53;2.90;;;18.40;67.30;;;;;;10371260;28;20545;-61
2021/11/14 16:57:04;;;;;;;3.58;2.92;;;18.40;67.30;;;;;;10371720;28;20121;-60
2021/11/14 17:02:04;;;;;;;3.00;2.40;;;18.40;67.50;;;;;;10372245;28;20422;-61
2021/11/14 17:07:05;;;;;;;3.55;2.20;;;18.40;67.50;;;;;;10372270;28;20034;-61
2021/11/14 17:12:10;;;;;;;4.85;2.40;;;18.40;67.30;;;;;;10352471;28;20046;-61
2021/11/14 17:17:11;;;;;;;3.88;2.55;;;18.40;67.40;;;;;;10331554;28;20027;-61
2021/11/14 17:22:14;;;;;;;3.40;2.25;;;18.30;67.50;;;;;;10331378;28;20117;-61
2021/11/14 17:27:18;;;;;;;3.35;2.20;;;18.40;67.30;;;;;;10331319;28;20026;-61
2021/11/14 17:32:18;;;;;;;5.22;2.40;;;18.40;67.20;;;;;;10331200;28;20478;-61
2021/11/14 17:37:19;;;;;;;3.38;2.40;;;18.40;67.30;;;;;;10366366;28;20108;-61
2021/11/14 17:42:20;;;;;;;2.90;2.30;;;18.40;67.40;;;;;;10371438;28;20364;-61
2021/11/14 17:47:21;;;;;;;4.32;2.38;;;18.30;67.50;;;;;;10370109;28;20038;-61
2021/11/14 17:52:22;;;;;;;3.38;2.33;;;18.30;67.50;;;;;;10371460;28;20406;-61
2021/11/14 17:57:23;;;;;;;3.05;2.05;;;18.40;67.20;;;;;;10370704;28;20030;-61
2021/11/14 18:02:24;;;;;;;2.53;1.85;;;18.50;67.00;;;;;;10368027;28;20120;-60
2021/11/14 18:07:26;;;;;;;3.30;2.28;;;18.40;67.10;;;;;;10372709;28;20033;-60
2021/11/14 18:12:28;;;;;;;2.55;1.98;;;18.40;67.40;;;;;;10354167;28;20027;-61
2021/11/14 18:17:29;;;;;;;3.25;2.47;;;18.30;67.50;;;;;;10335502;28;20022;-61
2021/11/14 18:22:30;;;;;;;3.58;2.58;;;18.40;67.20;;;;;;10335651;28;20403;-60
2021/11/14 18:27:31;;;;;;;3.53;2.33;;;18.40;67.20;;;;;;10335356;28;20101;-60
2021/11/14 18:32:32;;;;;;;3.33;1.83;;;18.30;67.30;;;;;;10335304;28;20469;-60
2021/11/14 18:37:33;;;;;;;3.15;2.00;;;18.50;67.20;;;;;;10372327;28;20040;-60
2021/11/14 18:42:34;;;;;;;3.05;2.13;;;18.60;66.60;;;;;;10374686;28;20030;-61
2021/11/14 18:47:35;;;;;;;4.50;2.05;;;18.60;66.60;;;;;;10375149;28;20050;-61
2021/11/14 18:52:37;;;;;;;3.72;2.40;;;18.50;66.70;;;;;;10375407;28;20038;-60
2021/11/14 18:57:38;;;;;;;2.92;2.30;;;18.50;67.00;;;;;;10374933;28;20036;-61
2021/11/14 19:02:42;;;;;;;3.13;1.98;;;18.50;66.80;;;;;;10375316;28;20561;-59
2021/11/14 19:07:43;;;;;;;3.47;2.35;;;18.50;66.80;;;;;;10356979;28;20466;-60
2021/11/14 19:12:44;;;;;;;3.42;2.30;;;18.50;67.00;;;;;;10350625;28;20030;-60
2021/11/14 19:17:46;;;;;;;2.78;2.08;;;18.60;66.90;;;;;;10363733;28;20057;-61
2021/11/14 19:22:48;;;;;;;3.03;2.63;;;18.60;66.90;;;;;;10351523;28;20042;-63
2021/11/14 19:27:50;;;;;;;4.15;2.72;;;18.50;66.80;;;;;;10343219;28;20046;-63
2021/11/14 19:32:54;;;;;;;5.40;2.70;;;18.50;67.00;;;;;;10357833;28;20033;-60
2021/11/14 19:37:57;;;;;;;5.82;3.13;;;18.60;67.10;;;;;;10361362;28;20030;-61
2021/11/14 19:42:58;;;;;;;5.10;3.22;;;18.60;66.80;;;;;;10364084;28;20359;-61
2021/11/14 19:47:59;;;;;;;4.63;3.10;;;18.70;67.20;;;;;;10368121;28;20088;-62
2021/11/14 19:53:00;;;;;;;7.63;3.58;;;18.60;67.60;;;;;;10363308;28;20100;-62
2021/11/14 19:58:01;;;;;;;4.85;3.65;;;18.60;67.90;;;;;;10370265;28;20029;-63
2021/11/14 20:03:04;;;;;;;6.30;3.75;;;18.50;68.30;;;;;;10370539;28;20036;-63
2021/11/14 20:08:06;;;;;;;4.00;3.30;;;18.50;68.50;;;;;;10365974;28;20120;-62
2021/11/14 20:13:07;;;;;;;5.57;3.90;;;18.40;68.70;;;;;;10363499;28;20398;-61
2021/11/14 20:18:10;;;;;;;7.32;3.78;;;18.40;69.20;;;;;;10364209;28;20026;-62
2021/11/14 20:23:12;;;;;;;4.72;4.13;;;18.40;69.30;;;;;;10369701;28;20048;-62
2021/11/14 20:28:13;;;;;;;4.95;3.60;;;18.40;69.30;;;;;;10368239;28;20390;-62
2021/11/14 20:33:14;;;;;;;6.03;4.43;;;18.40;69.50;;;;;;10366093;28;20034;-62
2021/11/14 20:38:15;;;;;;;7.38;4.28;;;18.30;69.70;;;;;;10361721;28;20045;-62
2021/11/14 20:43:15;;;;;;;4.82;4.20;;;18.30;69.40;;;;;;10350476;28;20040;-60
2021/11/14 20:48:16;;;;;;;7.45;3.85;;;18.20;70.10;;;;;;10356314;28;20121;-59
2021/11/14 20:53:17;;;;;;;7.13;4.00;;;18.20;69.90;;;;;;10363975;28;20037;-59
2021/11/14 20:58:18;;;;;;;6.07;4.13;;;18.10;69.80;;;;;;10371963;28;20482;-58
2021/11/14 21:03:19;;;;;;;6.60;4.30;;;18.00;70.00;;;;;;10367140;28;20033;-60
2021/11/14 21:08:20;;;;;;;5.18;3.90;;;17.90;69.90;;;;;;10365083;28;20128;-60
2021/11/14 21:13:22;;;;;;;7.20;4.05;;;17.90;70.10;;;;;;10361763;28;20050;-59
2021/11/14 21:18:23;;;;;;;4.80;3.80;;;17.80;70.20;;;;;;10371994;28;20030;-59
2021/11/14 21:23:26;;;;;;;7.15;3.75;;;17.80;70.20;;;;;;10353002;28;20084;-59
2021/11/14 21:28:27;;;;;;;5.53;3.83;;;17.70;70.20;;;;;;10331454;28;20041;-60
2021/11/14 21:38:48;;;;;;;5.55;3.28;;;17.70;70.40;;;;;;10371692;28;20034;-59
2021/11/14 21:43:48;;;;;;;4.15;3.00;;;17.60;71.00;;;;;;10332133;28;20577;-59
2021/11/14 21:48:49;;;;;;;5.82;3.65;;;17.60;70.50;;;;;;10379141;28;20108;-60
2021/11/14 21:53:50;;;;;;;4.03;3.17;;;17.60;70.50;;;;;;10378716;28;20022;-59
2021/11/14 21:58:51;;;;;;;4.93;3.03;;;17.60;70.60;;;;;;10377658;28;20112;-59
2021/11/14 22:03:51;;;;;;;5.40;2.97;;;17.60;70.60;;;;;;10372120;28;20038;-59
2021/11/14 22:08:52;;;;;;;4.60;3.25;;;17.50;70.80;;;;;;10377389;28;20037;-60
2021/11/14 22:13:53;;;;;;;4.25;3.58;;;17.50;70.70;;;;;;10345343;28;20538;-59
2021/11/14 22:18:54;;;;;;;4.30;3.20;;;17.50;70.80;;;;;;10356025;28;20034;-58
2021/11/14 22:23:55;;;;;;;5.15;3.40;;;17.40;70.70;;;;;;10337450;28;20049;-59
2021/11/14 22:28:55;;;;;;;4.53;2.92;;;17.40;70.80;;;;;;10346564;28;20030;-58
2021/11/14 22:33:56;;;;;;;4.32;3.45;;;17.40;70.80;;;;;;10344635;28;20034;-60
2021/11/14 22:38:57;;;;;;;5.13;3.45;;;17.40;70.80;;;;;;10376936;28;20482;-59
2021/11/14 22:44:01;;;;;;;4.93;3.42;;;17.40;70.70;;;;;;10377133;28;20112;-59
2021/11/14 22:49:04;;;;;;;4.57;3.25;;;17.40;70.60;;;;;;10376788;28;20100;-59
2021/11/14 22:54:04;;;;;;;4.80;3.15;;;17.40;70.50;;;;;;10375436;28;20037;-59
2021/11/14 22:59:05;;;;;;;3.90;3.30;;;17.40;70.60;;;;;;10376462;28;20504;-60
2021/11/14 23:04:08;;;;;;;4.43;3.45;;;17.50;70.60;;;;;;10374417;28;20029;-59
2021/11/14 23:09:11;;;;;;;4.18;3.22;;;17.40;70.40;;;;;;10361932;28;20122;-59
2021/11/14 23:14:15;;;;;;;4.25;3.03;;;17.50;70.10;;;;;;10359834;28;20113;-59
2021/11/14 23:19:19;;;;;;;3.28;2.28;;;17.60;69.70;;;;;;10338233;28;20109;-59
2021/11/14 23:24:20;;;;;;;4.68;3.28;;;17.70;69.60;;;;;;10335075;28;20027;-60
2021/11/14 23:29:21;;;;;;;4.13;3.25;;;17.70;69.50;;;;;;10336965;28;20537;-60
2021/11/14 23:34:22;;;;;;;3.70;3.08;;;17.70;69.60;;;;;;10355562;28;20070;-59
2021/11/14 23:39:25;;;;;;;3.78;2.45;;;17.60;69.70;;;;;;10374859;28;20030;-59
2021/11/14 23:44:26;;;;;;;4.55;3.33;;;17.60;69.70;;;;;;10374768;28;20517;-59
2021/11/14 23:49:28;;;;;;;4.38;3.05;;;17.50;69.80;;;;;;10373381;28;20052;-60
2021/11/14 23:54:30;;;;;;;4.93;2.60;;;17.50;69.90;;;;;;10374589;28;20482;-60
2021/11/14 23:59:33;;;;;;;4.72;3.20;;;17.50;70.00;;;;;;10351572;28;20042;-60
